Terminal Aerodrome Forecast
Issued by NWS Wakefield, VA

Home | Current Version | Previous Version | Text Only | Print | Product List | Glossary On
Versions: 1 2 3 4 5 6 7 8 9 10 11 12 13 14 15 16 17 18 19 20 21 22 23
000
FTUS41 KAKQ 290550 RRA
TAFSBY
TAF
KSBY 290550Z 2906/3006 30005KT P6SM BKN060
      TEMPO 2908/2910 2SM BR
     FM291200 33008KT P6SM SCT040
     FM300300 VRB03KT 4SM BR SCT040=

USA.gov is the U.S. government's official web portal to all federal, state and local government web resources and services.